createdAt,value
2023-04-08T00:00:39.244Z,99530.72
2023-04-08T00:01:43.648Z,99529.88
2023-04-08T00:02:48.232Z,99535.28
2023-04-08T00:03:53.248Z,99527.31
2023-04-08T00:04:57.942Z,99536.38
2023-04-08T00:06:07.209Z,99533.75
2023-04-08T00:07:13.489Z,99532.91
2023-04-08T00:08:17.361Z,99533.94
2023-04-08T00:09:21.568Z,99530.75
2023-04-08T00:10:26.675Z,99535.88
2023-04-08T00:11:30.835Z,99542.97
2023-04-08T00:12:48.559Z,99537.78
2023-04-08T00:13:52.440Z,99537.88
2023-04-08T00:14:59.566Z,99537.72
2023-04-08T00:16:03.978Z,99537.66
2023-04-08T00:17:13.805Z,99538.41
2023-04-08T00:18:18.006Z,99536.75
2023-04-08T00:19:25.636Z,99541.13
2023-04-08T00:20:29.898Z,99543.03
2023-04-08T00:21:34.108Z,99540.34
2023-04-08T00:22:38.126Z,99538.56
2023-04-08T00:23:41.863Z,99540.19
2023-04-08T00:24:45.555Z,99546.41
2023-04-08T00:25:51.343Z,99537.78
2023-04-08T00:26:58.927Z,99538.72
2023-04-08T00:28:06.103Z,99544.06
2023-04-08T00:29:11.634Z,99541.66
2023-04-08T00:30:19.447Z,99539.88
2023-04-08T00:31:26.332Z,99540.94
2023-04-08T00:32:30.633Z,99543.78
2023-04-08T00:33:34.354Z,99542.75
2023-04-08T00:34:38.867Z,99540.09
2023-04-08T00:35:43.444Z,99560.97
2023-04-08T00:36:51.290Z,99548.06
2023-04-08T00:37:56.657Z,99543.00
2023-04-08T00:39:07.143Z,99548.34
2023-04-08T00:40:11.580Z,99550.09
2023-04-08T00:41:15.976Z,99540.59
2023-04-08T00:42:22.464Z,99545.72
2023-04-08T00:43:27.291Z,99551.09
2023-04-08T00:44:34.366Z,99551.88
2023-04-08T00:45:39.976Z,99548.56
2023-04-08T00:46:44.529Z,99552.28
2023-04-08T00:47:54.777Z,99549.69
2023-04-08T00:49:02.668Z,99555.19
2023-04-08T00:50:12.063Z,99553.34
2023-04-08T00:51:18.200Z,99554.09
2023-04-08T00:52:22.476Z,99550.56
2023-04-08T00:53:32.788Z,99556.69
2023-04-08T00:54:39.020Z,99560.03
2023-04-08T00:55:43.025Z,99559.31
2023-04-08T00:56:46.853Z,99560.19
2023-04-08T00:57:51.133Z,99561.88
2023-04-08T00:58:57.649Z,99561.97
2023-04-08T01:00:02.369Z,99554.94
2023-04-08T01:01:29.074Z,99562.81
2023-04-08T01:03:18.922Z,99555.94
2023-04-08T01:04:53.099Z,99559.91
2023-04-08T01:06:22.063Z,99559.16
2023-04-08T01:07:34.222Z,99562.47
2023-04-08T01:08:42.173Z,99560.81
2023-04-08T01:09:52.046Z,99568.63
2023-04-08T01:11:11.532Z,99568.53
2023-04-08T01:12:32.500Z,99569.47
2023-04-08T01:13:42.680Z,99563.28
2023-04-08T01:14:49.010Z,99566.56
2023-04-08T01:15:56.502Z,99569.38
2023-04-08T01:17:02.808Z,99573.81
2023-04-08T01:18:14.765Z,99577.25
2023-04-08T01:19:32.764Z,99567.13
2023-04-08T01:20:37.757Z,99573.28
2023-04-08T01:21:42.315Z,99577.53
2023-04-08T01:23:47.136Z,99574.78
2023-04-08T01:25:13.114Z,99574.78
2023-04-08T01:26:24.575Z,99574.00
2023-04-08T01:27:32.706Z,99572.38
2023-04-08T01:28:39.546Z,99568.84
2023-04-08T01:29:47.110Z,99572.22
2023-04-08T01:30:56.086Z,99572.22
2023-04-08T01:32:02.522Z,99579.13
2023-04-08T01:33:07.725Z,99572.06
2023-04-08T01:34:15.754Z,99568.56
2023-04-08T01:35:20.815Z,99568.47
2023-04-08T01:36:28.968Z,99571.84
2023-04-08T01:37:34.932Z,99568.53
2023-04-08T01:38:40.070Z,99565.84
2023-04-08T01:39:46.182Z,99559.75
2023-04-08T01:40:52.462Z,99572.94
2023-04-08T01:41:59.663Z,99574.50
2023-04-08T01:43:04.917Z,99569.19
2023-04-08T01:44:17.772Z,99574.38
2023-04-08T01:45:24.310Z,99573.56
2023-04-08T01:46:34.031Z,99576.13
2023-04-08T01:47:40.829Z,99569.13
2023-04-08T01:48:49.552Z,99572.69
2023-04-08T01:49:54.789Z,99572.66
2023-04-08T01:51:07.209Z,99573.31
2023-04-08T01:52:14.962Z,99574.25
2023-04-08T01:53:23.724Z,99569.84
2023-04-08T01:54:27.704Z,99574.44
2023-04-08T01:55:34.884Z,99575.38
2023-04-08T01:56:44.669Z,99578.84
2023-04-08T01:57:53.548Z,99579.50
2023-04-08T01:59:02.455Z,99581.13
2023-04-08T02:00:11.725Z,99575.72
2023-04-08T02:01:20.365Z,99579.41
2023-04-08T02:02:27.802Z,99570.59
2023-04-08T02:03:34.596Z,99579.41
2023-04-08T02:04:38.639Z,99578.38
2023-04-08T02:05:43.102Z,99583.63
2023-04-08T02:06:47.682Z,99577.44
2023-04-08T02:07:52.187Z,99577.56
2023-04-08T02:08:57.953Z,99578.28
2023-04-08T02:10:01.725Z,99576.50
2023-04-08T02:11:14.609Z,99579.06
2023-04-08T02:12:19.958Z,99581.63
2023-04-08T02:13:28.618Z,99582.31
2023-04-08T02:14:36.702Z,99581.47
2023-04-08T02:15:52.248Z,99582.97
2023-04-08T02:17:19.960Z,99586.44
2023-04-08T02:18:29.934Z,99579.56
2023-04-08T02:19:48.592Z,99588.38
2023-04-08T02:21:07.962Z,99591.41
2023-04-08T02:22:34.371Z,99596.75
2023-04-08T02:23:51.464Z,99591.69
2023-04-08T02:24:57.420Z,99593.38
2023-04-08T02:26:09.633Z,99598.78
2023-04-08T02:27:14.463Z,99594.38
2023-04-08T02:28:21.594Z,99596.09
2023-04-08T02:29:44.851Z,99598.63
2023-04-08T02:30:57.784Z,99596.88
2023-04-08T02:32:09.835Z,99596.00
2023-04-08T02:33:16.957Z,99602.91
2023-04-08T02:34:25.498Z,99598.78
2023-04-08T02:35:30.594Z,99603.03
2023-04-08T02:36:36.199Z,99600.50
2023-04-08T02:37:40.913Z,99583.81
2023-04-08T02:38:50.548Z,99599.75
2023-04-08T02:39:55.398Z,99590.28
2023-04-08T02:40:59.528Z,99598.22
2023-04-08T02:42:11.955Z,99598.31
2023-04-08T02:43:17.080Z,99602.66
2023-04-08T02:44:25.550Z,99597.41
2023-04-08T02:45:43.510Z,99600.06
2023-04-08T02:46:47.795Z,99598.47
2023-04-08T02:47:55.715Z,99600.31
2023-04-08T02:48:59.725Z,99601.03
2023-04-08T02:50:28.271Z,99600.13
2023-04-08T02:51:35.991Z,99599.00
2023-04-08T02:52:45.972Z,99603.34
2023-04-08T02:53:50.086Z,99596.31
2023-04-08T02:54:54.067Z,99600.63
2023-04-08T02:55:57.776Z,99604.25
2023-04-08T02:57:02.301Z,99606.88
2023-04-08T02:58:17.497Z,99605.22
2023-04-08T02:59:21.232Z,99605.09
2023-04-08T03:00:25.034Z,99608.66
2023-04-08T03:01:29.651Z,99603.50
2023-04-08T03:02:33.924Z,99602.53
2023-04-08T03:03:42.676Z,99603.41
2023-04-08T03:04:46.871Z,99604.38
2023-04-08T03:05:50.687Z,99600.84
2023-04-08T03:06:54.476Z,99605.16
2023-04-08T03:07:58.563Z,99607.69
2023-04-08T03:09:24.838Z,99612.84
2023-04-08T03:10:35.125Z,99606.66
2023-04-08T03:11:45.014Z,99618.22
2023-04-08T03:12:48.933Z,99612.94
2023-04-08T03:13:53.318Z,99621.63
2023-04-08T03:14:57.254Z,99624.25
2023-04-08T03:16:01.871Z,99614.75
2023-04-08T03:17:10.297Z,99613.09
2023-04-08T03:18:14.383Z,99618.22
2023-04-08T03:19:23.260Z,99617.09
2023-04-08T03:20:27.611Z,99615.31
2023-04-08T03:21:32.877Z,99619.78
2023-04-08T03:22:37.152Z,99612.56
2023-04-08T03:23:45.066Z,99620.38
2023-04-08T03:24:49.059Z,99616.16
2023-04-08T03:25:56.368Z,99614.22
2023-04-08T03:27:01.509Z,99616.03
2023-04-08T03:28:09.996Z,99619.59
2023-04-08T03:29:20.759Z,99627.59
2023-04-08T03:30:26.337Z,99618.09
2023-04-08T03:31:31.428Z,99618.16
2023-04-08T03:32:38.826Z,99620.78
2023-04-08T03:33:46.048Z,99623.28
2023-04-08T03:34:58.119Z,99626.97
2023-04-08T03:36:02.267Z,99626.97
2023-04-08T03:37:07.396Z,99622.84
2023-04-08T03:38:11.739Z,99620.34
2023-04-08T03:39:15.746Z,99622.81
2023-04-08T03:40:22.536Z,99626.38
2023-04-08T03:41:33.127Z,99627.19
2023-04-08T03:42:37.018Z,99630.81
2023-04-08T03:43:41.063Z,99630.69
2023-04-08T03:44:45.219Z,99633.13
2023-04-08T03:45:49.183Z,99629.81
2023-04-08T03:46:53.249Z,99634.19
2023-04-08T03:47:57.246Z,99628.91
2023-04-08T03:49:01.292Z,99629.84
2023-04-08T03:50:06.069Z,99639.50
2023-04-08T03:51:09.733Z,99633.31
2023-04-08T03:52:16.546Z,99634.84
2023-04-08T03:53:21.200Z,99638.28
2023-04-08T03:54:30.342Z,99639.81
2023-04-08T03:55:34.292Z,99633.69
2023-04-08T03:56:38.335Z,99639.03
2023-04-08T03:57:42.209Z,99635.50
2023-04-08T03:58:46.235Z,99650.09
2023-04-08T03:59:50.433Z,99649.91
2023-04-08T04:00:56.774Z,99643.72
2023-04-08T04:02:02.661Z,99650.63
2023-04-08T04:03:09.224Z,99651.47
2023-04-08T04:04:13.715Z,99650.41
2023-04-08T04:05:20.952Z,99653.94
2023-04-08T04:06:27.694Z,99647.22
2023-04-08T04:07:32.583Z,99653.50
2023-04-08T04:08:42.969Z,99656.34
2023-04-08T04:09:47.042Z,99658.19
2023-04-08T04:10:54.979Z,99654.97
2023-04-08T04:12:06.192Z,99657.63
2023-04-08T04:13:10.407Z,99662.88
2023-04-08T04:14:14.356Z,99670.72
2023-04-08T04:15:25.970Z,99667.19
2023-04-08T04:16:32.699Z,99670.59
2023-04-08T04:17:38.981Z,99665.22
2023-04-08T04:18:43.084Z,99672.22
2023-04-08T04:19:49.168Z,99667.75
2023-04-08T04:20:53.643Z,99674.84
2023-04-08T04:21:57.833Z,99673.16
2023-04-08T04:23:01.987Z,99677.69
2023-04-08T04:24:07.724Z,99675.91
2023-04-08T04:25:15.193Z,99678.63
2023-04-08T04:26:22.403Z,99674.34
2023-04-08T04:27:26.782Z,99673.47
2023-04-08T04:28:32.127Z,99677.88
2023-04-08T04:29:42.113Z,99680.38
2023-04-08T04:30:56.604Z,99682.22
2023-04-08T04:32:09.424Z,99679.59
2023-04-08T04:33:13.470Z,99680.31
2023-04-08T04:34:17.513Z,99690.63
2023-04-08T04:35:21.601Z,99681.81
2023-04-08T04:36:25.978Z,99687.97
2023-04-08T04:37:30.039Z,99686.22
2023-04-08T04:38:40.157Z,99686.16
2023-04-08T04:39:51.163Z,99687.09
2023-04-08T04:41:01.800Z,99693.31
2023-04-08T04:42:07.064Z,99693.25
2023-04-08T04:43:14.542Z,99698.63
2023-04-08T04:44:21.583Z,99686.47
2023-04-08T04:45:25.713Z,99693.47
2023-04-08T04:46:29.626Z,99691.66
2023-04-08T04:47:33.601Z,99694.22
2023-04-08T04:48:37.831Z,99691.53
2023-04-08T04:49:42.362Z,99693.44
2023-04-08T04:51:05.406Z,99706.34
2023-04-08T04:52:13.314Z,99701.91
2023-04-08T04:53:17.264Z,99698.34
2023-04-08T04:54:25.144Z,99700.94
2023-04-08T04:55:29.128Z,99702.50
2023-04-08T04:56:33.416Z,99697.44
2023-04-08T04:57:37.016Z,99707.03
2023-04-08T04:58:40.756Z,99699.97
2023-04-08T04:59:44.607Z,99705.13
2023-04-08T05:00:48.454Z,99712.16
2023-04-08T05:01:52.228Z,99715.75
2023-04-08T05:02:56.246Z,99713.91
2023-04-08T05:03:59.948Z,99717.34
2023-04-08T05:05:04.099Z,99705.84
2023-04-08T05:06:08.045Z,99715.50
2023-04-08T05:07:12.072Z,99709.25
2023-04-08T05:08:18.632Z,99713.72
2023-04-08T05:09:22.333Z,99710.25
2023-04-08T05:10:27.291Z,99705.00
2023-04-08T05:11:32.931Z,99714.63
2023-04-08T05:12:38.962Z,99711.09
2023-04-08T05:13:42.876Z,99707.75
2023-04-08T05:14:47.187Z,99711.09
2023-04-08T05:15:51.438Z,99717.00
2023-04-08T05:16:55.438Z,99723.03
2023-04-08T05:17:59.272Z,99715.94
2023-04-08T05:19:03.133Z,99719.56
2023-04-08T05:20:10.629Z,99727.31
2023-04-08T05:21:14.775Z,99730.84
2023-04-08T05:22:20.500Z,99728.09
2023-04-08T05:23:24.436Z,99731.66
2023-04-08T05:24:28.119Z,99728.88
2023-04-08T05:25:32.245Z,99734.06
2023-04-08T05:26:38.637Z,99724.63
2023-04-08T05:27:42.952Z,99719.34
2023-04-08T05:28:46.851Z,99727.25
2023-04-08T05:29:50.691Z,99732.34
2023-04-08T05:30:54.896Z,99732.34
2023-04-08T05:31:59.431Z,99740.13
2023-04-08T05:33:03.500Z,99732.25
2023-04-08T05:34:07.881Z,99734.72
2023-04-08T05:35:11.816Z,99732.88
2023-04-08T05:36:16.148Z,99734.56
2023-04-08T05:37:22.239Z,99737.19
2023-04-08T05:38:26.673Z,99745.16
2023-04-08T05:39:30.880Z,99725.91
2023-04-08T05:40:39.016Z,99742.34
2023-04-08T05:41:44.013Z,99740.41
2023-04-08T05:42:48.080Z,99742.25
2023-04-08T05:43:52.258Z,99735.25
2023-04-08T05:44:56.594Z,99740.28
2023-04-08T05:46:01.060Z,99738.47
2023-04-08T05:47:12.378Z,99743.75
2023-04-08T05:48:16.694Z,99740.00
2023-04-08T05:49:21.181Z,99744.34
2023-04-08T05:50:25.104Z,99746.72
2023-04-08T05:51:29.168Z,99751.75
2023-04-08T05:52:33.260Z,99750.59
2023-04-08T05:53:37.168Z,99749.59
2023-04-08T05:54:51.407Z,99752.22
2023-04-08T05:56:00.181Z,99756.34
2023-04-08T05:57:09.863Z,99758.97
2023-04-08T05:58:14.355Z,99759.81
2023-04-08T05:59:18.537Z,99758.84
2023-04-08T06:00:23.284Z,99765.09
2023-04-08T06:01:27.825Z,99764.22
2023-04-08T06:02:31.922Z,99774.63
2023-04-08T06:03:36.025Z,99767.59
2023-04-08T06:04:40.755Z,99770.91
2023-04-08T06:05:45.306Z,99772.69
2023-04-08T06:06:49.428Z,99777.16
2023-04-08T06:08:00.088Z,99776.41
2023-04-08T06:09:04.270Z,99777.25
2023-04-08T06:10:10.032Z,99784.28
2023-04-08T06:11:18.969Z,99780.72
2023-04-08T06:12:25.922Z,99782.44
2023-04-08T06:13:30.531Z,99780.72
2023-04-08T06:14:34.491Z,99785.91
2023-04-08T06:15:39.176Z,99784.94
2023-04-08T06:16:43.670Z,99787.41
2023-04-08T06:17:55.645Z,99795.16
2023-04-08T06:19:00.869Z,99798.59
2023-04-08T06:20:07.345Z,99796.78
2023-04-08T06:21:24.616Z,99796.94
2023-04-08T06:22:28.965Z,99794.44
2023-04-08T06:23:33.165Z,99803.25
2023-04-08T06:24:37.028Z,99804.03
2023-04-08T06:25:42.512Z,99796.16
2023-04-08T06:26:48.236Z,99801.28
2023-04-08T06:27:52.212Z,99801.19
2023-04-08T06:28:56.466Z,99802.91
2023-04-08T06:30:01.131Z,99801.34
2023-04-08T06:31:05.754Z,99796.03
2023-04-08T06:32:10.178Z,99805.59
2023-04-08T06:33:14.701Z,99795.06
2023-04-08T06:34:18.518Z,99800.25
2023-04-08T06:35:22.797Z,99803.69
2023-04-08T06:36:26.775Z,99801.84
2023-04-08T06:37:31.187Z,99803.53
2023-04-08T06:38:36.008Z,99804.97
2023-04-08T06:39:40.713Z,99798.84
2023-04-08T06:40:45.081Z,99801.56
2023-04-08T06:41:49.181Z,99806.78
2023-04-08T06:42:54.210Z,99804.03
2023-04-08T06:43:58.055Z,99808.22
2023-04-08T06:45:02.157Z,99806.63
2023-04-08T06:46:06.602Z,99806.34
2023-04-08T06:47:10.464Z,99802.75
2023-04-08T06:48:14.363Z,99803.00
2023-04-08T06:49:18.364Z,99804.47
2023-04-08T06:50:22.632Z,99803.88
2023-04-08T06:51:28.109Z,99804.34
2023-04-08T06:52:31.744Z,99809.03
2023-04-08T06:53:35.963Z,99809.69
2023-04-08T06:54:39.848Z,99806.38
2023-04-08T06:55:43.898Z,99805.59
2023-04-08T06:56:48.008Z,99800.13
2023-04-08T06:57:52.054Z,99809.06
2023-04-08T06:58:56.207Z,99802.19
2023-04-08T07:00:00.828Z,99800.97
2023-04-08T07:01:05.215Z,99800.25
2023-04-08T07:02:09.133Z,99803.13
2023-04-08T07:03:13.269Z,99805.69
2023-04-08T07:04:17.723Z,99801.34
2023-04-08T07:05:22.118Z,99800.47
2023-04-08T07:06:26.118Z,99798.66
2023-04-08T07:07:29.992Z,99804.78
2023-04-08T07:08:34.407Z,99798.50
2023-04-08T07:09:38.368Z,99803.78
2023-04-08T07:10:45.177Z,99809.19
2023-04-08T07:11:49.168Z,99807.50
2023-04-08T07:12:54.100Z,99806.66
2023-04-08T07:13:57.904Z,99802.22
2023-04-08T07:15:02.368Z,99807.78
2023-04-08T07:16:07.780Z,99807.22
2023-04-08T07:17:11.788Z,99799.34
2023-04-08T07:18:16.387Z,99801.66
2023-04-08T07:19:21.262Z,99802.56
2023-04-08T07:20:26.510Z,99807.88
2023-04-08T07:21:32.259Z,99801.28
2023-04-08T07:22:36.355Z,99808.34
2023-04-08T07:23:40.661Z,99807.34
2023-04-08T07:24:49.996Z,99802.06
2023-04-08T07:25:56.969Z,99798.09
2023-04-08T07:27:02.188Z,99804.91
2023-04-08T07:28:06.711Z,99801.50
2023-04-08T07:29:11.809Z,99805.63
2023-04-08T07:30:16.437Z,99818.41
2023-04-08T07:31:21.694Z,99809.34
2023-04-08T07:32:26.301Z,99806.69
2023-04-08T07:33:30.803Z,99807.03
2023-04-08T07:34:38.226Z,99815.22
2023-04-08T07:35:42.857Z,99812.81
2023-04-08T07:36:48.062Z,99814.72
2023-04-08T07:37:53.317Z,99814.34
2023-04-08T07:38:57.440Z,99825.19
2023-04-08T07:40:01.804Z,99822.66
2023-04-08T07:41:06.127Z,99825.63
2023-04-08T07:42:11.070Z,99829.16
2023-04-08T07:43:15.275Z,99837.72
2023-04-08T07:44:20.687Z,99836.44
2023-04-08T07:45:25.720Z,99827.78
2023-04-08T07:46:29.970Z,99817.84
2023-04-08T07:47:34.377Z,99826.63
2023-04-08T07:48:39.134Z,99823.84
2023-04-08T07:49:43.142Z,99825.59
2023-04-08T07:51:08.531Z,99821.56
2023-04-08T07:52:12.009Z,99825.84
2023-04-08T07:53:15.966Z,99828.66
2023-04-08T07:54:19.959Z,99827.09
2023-04-08T07:55:23.887Z,99833.03
2023-04-08T07:56:27.893Z,99829.19
2023-04-08T07:57:32.681Z,99831.66
2023-04-08T07:58:36.917Z,99836.25
2023-04-08T07:59:41.335Z,99840.69
2023-04-08T08:00:47.319Z,99836.75
2023-04-08T08:01:54.497Z,99836.94
2023-04-08T08:02:59.303Z,99835.13
2023-04-08T08:04:07.229Z,99837.63
2023-04-08T08:05:11.846Z,99840.91
2023-04-08T08:06:16.649Z,99830.88
2023-04-08T08:07:20.441Z,99836.34
2023-04-08T08:08:25.212Z,99838.06
2023-04-08T08:09:31.597Z,99833.31
2023-04-08T08:10:36.641Z,99838.06
2023-04-08T08:11:41.131Z,99835.09
2023-04-08T08:12:45.560Z,99830.28
2023-04-08T08:13:49.975Z,99836.81
2023-04-08T08:14:55.085Z,99831.53
2023-04-08T08:16:03.295Z,99830.13
2023-04-08T08:17:09.068Z,99834.47
2023-04-08T08:18:12.831Z,99836.41
2023-04-08T08:19:27.162Z,99839.44
2023-04-08T08:20:31.913Z,99830.16
2023-04-08T08:21:39.970Z,99838.16
2023-04-08T08:22:56.830Z,99834.53
2023-04-08T08:24:01.907Z,99833.69
2023-04-08T08:25:09.670Z,99829.75
2023-04-08T08:26:13.922Z,99839.78
2023-04-08T08:27:17.840Z,99833.56
2023-04-08T08:28:21.728Z,99837.94
2023-04-08T08:29:26.142Z,99842.28
2023-04-08T08:30:31.365Z,99844.38
2023-04-08T08:31:36.589Z,99842.03
2023-04-08T08:32:40.990Z,99842.81
2023-04-08T08:33:45.356Z,99848.25
2023-04-08T08:34:49.349Z,99850.09
2023-04-08T08:35:53.395Z,99851.63
2023-04-08T08:36:57.585Z,99854.56
2023-04-08T08:38:02.014Z,99850.41
2023-04-08T08:39:08.579Z,99846.84
2023-04-08T08:40:14.231Z,99844.44
2023-04-08T08:41:20.141Z,99845.34
2023-04-08T08:42:26.986Z,99845.34
2023-04-08T08:43:33.778Z,99850.13
2023-04-08T08:44:40.660Z,99846.44
2023-04-08T08:45:48.038Z,99852.41
2023-04-08T08:46:52.580Z,99844.78
2023-04-08T08:47:58.710Z,99848.59
2023-04-08T08:49:03.476Z,99849.72
2023-04-08T08:50:08.117Z,99846.28
2023-04-08T08:51:13.991Z,99846.28
2023-04-08T08:52:18.808Z,99846.13
2023-04-08T08:53:35.977Z,99850.41
2023-04-08T08:54:40.488Z,99847.94
2023-04-08T08:56:13.680Z,99848.66
2023-04-08T08:57:21.095Z,99847.78
2023-04-08T08:58:28.219Z,99850.56
2023-04-08T08:59:32.022Z,99856.63
2023-04-08T09:00:42.897Z,99856.59
2023-04-08T09:01:46.604Z,99854.78
2023-04-08T09:02:50.768Z,99852.78
2023-04-08T09:04:24.100Z,99855.41
2023-04-08T09:05:28.036Z,99860.41
2023-04-08T09:06:31.991Z,99863.25
2023-04-08T09:07:42.183Z,99851.84
2023-04-08T09:08:49.239Z,99862.94
2023-04-08T09:09:55.082Z,99860.69
2023-04-08T09:11:24.005Z,99861.69
2023-04-08T09:12:29.145Z,99862.25
2023-04-08T09:13:37.500Z,99864.09
2023-04-08T09:14:41.603Z,99858.75
2023-04-08T09:16:07.741Z,99857.72
2023-04-08T09:17:20.666Z,99858.06
2023-04-08T09:18:24.526Z,99859.97
2023-04-08T09:19:29.707Z,99859.69
2023-04-08T09:20:34.186Z,99869.81
2023-04-08T09:21:41.181Z,99868.78
2023-04-08T09:23:02.687Z,99863.78
2023-04-08T09:24:07.345Z,99868.41
2023-04-08T09:25:40.664Z,99867.88
2023-04-08T09:26:48.153Z,99860.38
2023-04-08T09:27:55.655Z,99858.41
2023-04-08T09:29:25.204Z,99856.25
2023-04-08T09:30:32.577Z,99853.63
2023-04-08T09:31:42.933Z,99857.28
2023-04-08T09:32:58.217Z,99855.97
2023-04-08T09:34:28.507Z,99863.16
2023-04-08T09:35:35.299Z,99859.06
2023-04-08T09:36:39.559Z,99873.47
2023-04-08T09:37:49.560Z,99873.38
2023-04-08T09:38:56.965Z,99875.28
2023-04-08T09:40:01.964Z,99882.94
2023-04-08T09:41:11.790Z,99881.34
2023-04-08T09:42:16.611Z,99877.06
2023-04-08T09:43:25.226Z,99871.06
2023-04-08T09:44:33.391Z,99879.13
2023-04-08T09:45:43.180Z,99879.31
2023-04-08T09:47:22.414Z,99880.56
2023-04-08T09:48:41.496Z,99877.59
2023-04-08T09:49:58.629Z,99881.75
2023-04-08T09:51:02.983Z,99879.28
2023-04-08T09:52:24.278Z,99879.53
2023-04-08T09:53:41.849Z,99881.19
2023-04-08T09:55:02.623Z,99881.84
2023-04-08T09:56:17.731Z,99883.72
2023-04-08T09:57:46.996Z,99886.50
2023-04-08T09:59:11.564Z,99881.91
2023-04-08T10:00:17.787Z,99874.09
2023-04-08T10:01:37.805Z,99872.88
2023-04-08T10:03:36.638Z,99884.59
2023-04-08T10:04:54.203Z,99883.34
2023-04-08T10:06:03.586Z,99883.16
2023-04-08T10:07:10.469Z,99875.25
2023-04-08T10:08:15.709Z,99883.38
2023-04-08T10:09:22.292Z,99884.13
2023-04-08T10:10:27.720Z,99884.31
2023-04-08T10:11:32.589Z,99877.59
2023-04-08T10:12:37.596Z,99880.56
2023-04-08T10:13:42.471Z,99880.66
2023-04-08T10:15:26.957Z,99884.63
2023-04-08T10:16:34.902Z,99887.56
2023-04-08T10:17:38.986Z,99891.91
2023-04-08T10:18:45.897Z,99889.41
2023-04-08T10:19:50.095Z,99891.25
2023-04-08T10:20:57.950Z,99896.44
2023-04-08T10:22:02.307Z,99887.19
2023-04-08T10:23:14.169Z,99885.84
2023-04-08T10:24:24.858Z,99886.16
2023-04-08T10:25:36.561Z,99889.81
2023-04-08T10:26:43.892Z,99888.09
2023-04-08T10:27:48.038Z,99881.03
2023-04-08T10:28:52.057Z,99883.78
2023-04-08T10:29:59.994Z,99881.09
2023-04-08T10:31:24.613Z,99876.97
2023-04-08T10:32:33.308Z,99885.84
2023-04-08T10:33:40.665Z,99874.03
2023-04-08T10:34:54.082Z,99873.19
2023-04-08T10:36:13.745Z,99882.06
2023-04-08T10:37:18.021Z,99887.97
2023-04-08T10:38:22.545Z,99890.66
2023-04-08T10:39:30.982Z,99888.97
2023-04-08T10:40:42.019Z,99888.09
2023-04-08T10:41:54.385Z,99891.59
2023-04-08T10:42:59.368Z,99891.69
2023-04-08T10:44:06.031Z,99890.09
2023-04-08T10:45:10.826Z,99890.09
2023-04-08T10:46:15.675Z,99887.41
2023-04-08T10:47:28.738Z,99883.56
2023-04-08T10:48:33.175Z,99886.28
2023-04-08T10:49:41.905Z,99888.13
2023-04-08T10:50:55.736Z,99892.53
2023-04-08T10:52:00.162Z,99888.53
2023-04-08T10:53:06.608Z,99894.63
2023-04-08T10:54:15.358Z,99895.53
2023-04-08T10:55:26.967Z,99898.34
2023-04-08T10:56:34.031Z,99891.34
2023-04-08T10:57:39.236Z,99899.69
2023-04-08T10:58:54.298Z,99895.19
2023-04-08T10:59:58.324Z,99901.41
2023-04-08T11:01:12.060Z,99892.81
2023-04-08T11:02:17.537Z,99890.00
2023-04-08T11:03:28.704Z,99891.91
2023-04-08T11:04:33.256Z,99883.97
2023-04-08T11:05:39.407Z,99894.41
2023-04-08T11:06:49.752Z,99896.41
2023-04-08T11:08:00.580Z,99893.84
2023-04-08T11:09:04.870Z,99894.69
2023-04-08T11:10:10.198Z,99885.97
2023-04-08T11:11:45.995Z,99890.38
2023-04-08T11:12:50.736Z,99881.41
2023-04-08T11:13:58.852Z,99879.78
2023-04-08T11:15:06.726Z,99886.63
2023-04-08T11:16:18.438Z,99881.13
2023-04-08T11:17:22.851Z,99884.81
2023-04-08T11:18:27.668Z,99884.81
2023-04-08T11:19:36.980Z,99883.00
2023-04-08T11:20:40.846Z,99888.13
2023-04-08T11:21:48.498Z,99892.28
2023-04-08T11:22:53.105Z,99888.81
2023-04-08T11:23:57.384Z,99896.63
2023-04-08T11:25:02.359Z,99892.41
2023-04-08T11:26:11.428Z,99896.13
2023-04-08T11:27:20.879Z,99896.91
2023-04-08T11:28:26.403Z,99892.56
2023-04-08T11:29:31.205Z,99893.25
2023-04-08T11:30:37.449Z,99895.03
2023-04-08T11:31:44.524Z,99892.41
2023-04-08T11:32:48.671Z,99887.13
2023-04-08T11:33:59.879Z,99894.97
2023-04-08T11:35:09.504Z,99894.09
2023-04-08T11:36:13.877Z,99889.69
2023-04-08T11:37:17.878Z,99888.91
2023-04-08T11:38:28.747Z,99888.97
2023-04-08T11:39:32.741Z,99895.03
2023-04-08T11:40:37.728Z,99888.03
2023-04-08T11:41:43.869Z,99890.00
2023-04-08T11:42:53.485Z,99889.25
2023-04-08T11:43:57.905Z,99892.75
2023-04-08T11:45:12.818Z,99890.34
2023-04-08T11:46:17.351Z,99890.13
2023-04-08T11:47:22.904Z,99895.41
2023-04-08T11:48:26.993Z,99895.41
2023-04-08T11:49:47.744Z,99893.88
2023-04-08T11:51:05.382Z,99890.34
2023-04-08T11:52:55.132Z,99892.13
2023-04-08T11:53:59.406Z,99887.69
2023-04-08T11:55:23.783Z,99881.41
2023-04-08T11:56:30.554Z,99879.91
2023-04-08T11:57:34.434Z,99884.91
2023-04-08T11:58:38.087Z,99885.84
2023-04-08T11:59:41.822Z,99883.28
2023-04-08T12:00:46.292Z,99880.56
2023-04-08T12:01:50.208Z,99877.84
2023-04-08T12:02:58.339Z,99879.63
2023-04-08T12:04:03.399Z,99882.41
2023-04-08T12:05:08.143Z,99876.56
2023-04-08T12:06:12.340Z,99878.19
2023-04-08T12:07:16.255Z,99879.78
2023-04-08T12:08:21.549Z,99878.97
2023-04-08T12:09:25.469Z,99878.00
2023-04-08T12:10:30.621Z,99876.19
2023-04-08T12:11:37.698Z,99882.41
2023-04-08T12:12:53.082Z,99863.84
2023-04-08T12:13:57.920Z,99882.19
2023-04-08T12:15:02.530Z,99874.50
2023-04-08T12:16:10.157Z,99883.47
2023-04-08T12:17:17.713Z,99885.06
2023-04-08T12:18:21.543Z,99879.81
2023-04-08T12:19:25.419Z,99877.13
2023-04-08T12:20:30.819Z,99874.41
2023-04-08T12:21:52.921Z,99866.56
2023-04-08T12:22:59.632Z,99869.22
2023-04-08T12:24:06.555Z,99864.44
2023-04-08T12:25:19.164Z,99868.69
2023-04-08T12:26:28.996Z,99872.13
2023-04-08T12:27:34.062Z,99870.28
2023-04-08T12:28:38.408Z,99865.69
2023-04-08T12:29:42.418Z,99866.63
2023-04-08T12:30:47.431Z,99866.72
2023-04-08T12:33:15.257Z,99868.41
2023-04-08T12:34:23.752Z,99877.97
2023-04-08T12:35:27.621Z,99872.69
2023-04-08T12:36:32.325Z,99868.25
2023-04-08T12:37:36.671Z,99873.34
2023-04-08T12:38:42.337Z,99875.13
2023-04-08T12:39:46.318Z,99876.69
2023-04-08T12:40:53.407Z,99873.25
2023-04-08T12:41:58.525Z,99871.41
2023-04-08T12:43:03.325Z,99870.41
2023-04-08T12:44:11.091Z,99867.63
2023-04-08T12:45:24.458Z,99874.84
2023-04-08T12:46:29.098Z,99863.56
2023-04-08T12:47:35.487Z,99870.50
2023-04-08T12:48:39.795Z,99875.97
2023-04-08T12:49:49.376Z,99870.53
2023-04-08T12:50:54.220Z,99872.13
2023-04-08T12:51:58.496Z,99873.19
2023-04-08T12:53:02.579Z,99872.97
2023-04-08T12:54:07.352Z,99872.03
2023-04-08T12:55:14.213Z,99870.13
2023-04-08T12:56:18.267Z,99872.69
2023-04-08T12:57:21.959Z,99872.53
2023-04-08T12:58:25.907Z,99874.25
2023-04-08T12:59:29.614Z,99872.31
2023-04-08T13:00:33.795Z,99870.53
2023-04-08T13:01:37.850Z,99871.25
2023-04-08T13:02:44.353Z,99875.63
2023-04-08T13:03:49.805Z,99869.31
2023-04-08T13:04:59.687Z,99874.69
2023-04-08T13:06:03.407Z,99873.53
2023-04-08T13:07:08.065Z,99868.25
2023-04-08T13:08:13.127Z,99871.50
2023-04-08T13:09:17.273Z,99867.25
2023-04-08T13:11:58.709Z,99861.94
2023-04-08T13:13:07.238Z,99867.06
2023-04-08T13:14:15.385Z,99866.94
2023-04-08T13:15:19.967Z,99865.28
2023-04-08T13:16:24.116Z,99866.94